Date,TemperatureHighF,TemperatureAvgF,TemperatureLowF,DewpointHighF,DewpointAvgF,DewpointLowF,HumidityHigh,HumidityAvg,HumidityLow,PressureMaxIn,PressureMinIn,WindSpeedMaxMPH,WindSpeedAvgMPH,GustSpeedMaxMPH,PrecipitationSumIn
2013-3-1,39.8,37.2,35.3,34.0,30.5,27.4,89,77,65,29.57,29.42,17,6,17,0.00
2013-3-2,43.5,37.7,32.9,30.4,27.6,25.2,76,67,55,29.56,29.51,16,5,16,0.00
2013-3-3,40.2,35.9,31.9,32.8,28.9,25.4,84,76,67,29.53,29.45,21,7,21,0.00
2013-3-4,38.2,34.2,31.6,29.0,24.2,21.5,87,67,54,29.60,29.44,27,14,30,0.00
2013-3-5,42.3,36.8,31.8,33.8,28.0,20.8,87,71,59,29.95,29.60,24,6,24,0.00
2013-3-6,39.9,37.9,35.5,36.2,32.7,28.5,91,82,66,30.00,29.92,30,9,30,0.12
2013-3-7,37.2,33.5,31.9,32.7,31.5,28.1,100,93,70,29.95,29.86,32,9,33,0.28
2013-3-8,42.9,35.0,30.7,38.2,29.8,22.0,100,85,44,30.04,29.80,33,10,33,0.03
2013-3-9,40.6,36.5,32.1,30.9,27.0,22.1,90,69,53,30.26,30.03,25,4,25,0.00
2013-3-10,39.3,34.9,29.4,32.2,29.7,26.8,92,82,68,30.30,30.22,9,2,11,0.00
2013-3-11,48.6,41.2,35.8,39.6,35.2,31.0,92,79,64,30.23,30.06,13,2,13,0.00
2013-3-12,52.3,45.4,41.1,52.3,44.2,39.1,100,96,89,30.06,29.62,21,5,21,0.16
2013-3-13,51.9,45.1,39.1,51.9,31.7,19.2,100,62,33,29.67,29.58,22,9,22,0.00
2013-3-14,39.1,33.0,24.4,25.2,16.4,6.4,64,50,39,29.70,29.57,30,12,30,0.00
2013-3-15,40.3,29.9,20.5,27.4,11.9,2.6,70,48,23,29.73,29.51,33,11,33,0.00
2013-3-16,38.6,33.6,29.5,26.8,14.2,2.7,69,46,24,29.77,29.55,29,7,29,0.00
2013-3-17,35.3,31.1,26.4,15.3,8.9,0.9,60,40,25,30.21,29.77,28,8,28,0.00
2013-3-18,33.4,27.5,20.5,27.2,9.4,-2.5,90,47,32,30.34,30.15,21,5,21,0.00
2013-3-19,36.6,33.1,27.5,36.6,32.9,26.0,100,99,90,30.15,29.46,23,9,30,0.69
2013-3-20,37.5,31.8,26.1,26.1,20.9,17.1,94,65,44,29.69,29.54,28,10,28,0.02
2013-3-21,35.5,31.5,29.8,29.5,21.9,14.9,94,68,46,29.69,29.48,11,2,11,0.00
2013-3-22,39.8,34.0,30.3,28.1,20.5,13.3,88,59,37,29.63,29.47,21,8,23,0.00
2013-3-23,42.5,35.9,29.5,23.9,19.5,14.6,71,52,34,29.65,29.50,33,14,33,0.00
2013-3-24,45.1,38.0,33.2,31.4,24.5,20.0,79,59,39,29.69,29.62,25,6,25,0.00
2013-3-25,42.8,38.2,33.2,34.8,30.6,25.0,82,74,67,29.67,29.43,19,4,19,0.00
2013-3-26,49.6,40.7,34.6,33.3,24.7,15.4,90,55,28,29.66,29.43,21,6,21,0.03
2013-3-27,51.7,43.2,35.3,33.3,24.9,20.4,74,50,30,29.75,29.62,28,8,28,0.00
2013-3-28,47.0,42.3,37.5,35.7,32.6,26.3,92,69,45,29.90,29.74,20,5,21,0.02
2013-3-29,55.1,45.8,39.3,37.9,32.9,30.7,72,61,42,29.93,29.86,12,5,21,0.02
2013-3-30,51.4,44.5,37.9,33.2,30.5,21.7,81,59,31,30.00,29.91,16,4,16,0.00
2013-3-31,56.5,44.5,33.8,38.3,30.2,21.7,81,60,31,30.01,29.66,21,3,21,0.01